• Join FlightAware (Why Join?)
  • Login
  • US Flag 
06:54AM EDT


 

Airport Tracker/Info


-or-


 

Live Flight TrackerFlight Track Log ✈ JBU56 ✈ 18-Jul-2013 ✈ KIAD - KBOS

Flight Track Log - Related Links

Times and Time Zones

All times are in EDT time to prevent confusion due to time zone crossing. See the JBU56 flight status page for this flight to view local times or setup timezone preferences in your user account.

Time Position Orientation Groundspeed Altitude Reporting Facility
EDT Latitude Longitude Course Direction KTS MPH feet Rate Location/Type
09:07AM 38.9500 -77.5000 333° Northwest 158 182 1,300  Level Potomac TRACON
09:08AM 39.0000 -77.5333 333° Northwest 205 236 2,600 1,680 Climbing Potomac TRACON
09:09AM 39.0500 -77.5833 322° Northwest 246 283 4,700 2,460 Climbing Potomac TRACON
09:09AM 39.1167 -77.5500 21° North 272 313 7,300 2,640 Climbing Potomac TRACON
09:10AM 39.1500 -77.4667 63° Northeast 289 333 9,800 1,320 Climbing Potomac TRACON
09:11AM 39.1667 -77.3667 78° East 308 354 10,000 960 Climbing Potomac TRACON
09:12AM 39.1500 -77.2667 102° East 355 409 11,700 1,920 Climbing Potomac TRACON
09:14AM 39.0817 -77.0517 112° Southeast 371 427 15,400 2,100 Climbing Washington Center
09:15AM 39.0878 -76.8914 87° East 371 427 17,900 2,040 Climbing Washington Center
09:16AM 39.1017 -76.7525 83° East 371 427 19,600 1,680 Climbing Washington Center
09:17AM 39.1153 -76.6108 83° East 382 440 21,300 1,680 Climbing Washington Center
09:18AM 39.1292 -76.4667 83° East 400 460 23,000 840 Climbing Washington Center
09:19AM 39.1425 -76.3194 83° East 407 468 23,000  Level Washington Center
09:20AM 39.1558 -76.1725 83° East 407 468 23,000  Level Washington Center
09:21AM 39.1731 -76.0361 81° East 416 479 23,000 780 Level Washington Center
09:22AM 39.1964 -75.8917 78° East 416 479 24,600 1,380 Climbing Washington Center
09:23AM 39.2739 -75.7739 50° Northeast 401 461 25,900 1,200 Climbing Washington Center
09:24AM 39.3594 -75.6639 45° Northeast 413 475 27,100 1,080 Climbing Washington Center
09:25AM 39.4489 -75.5511 44° Northeast 428 493 28,100 1,080 Climbing Washington Center
09:26AM 39.5342 -75.4381 46° Northeast 438 504 29,300 1,260 Climbing Washington Center
09:27AM 39.6236 -75.3194 46° Northeast 444 511 30,700 600 Climbing Washington Center
09:29AM 39.7578 -75.1292 47° Northeast 445 512 31,000 60 Climbing New York Center
09:30AM 39.8525 -74.9944 47° Northeast 455 524 31,000  Level New York Center
09:31AM 39.9444 -74.8647 47° Northeast 460 529 31,000  Level New York Center
09:32AM 40.0278 -74.7475 47° Northeast 460 529 31,000  Level New York Center
09:33AM 40.1067 -74.6356 47° Northeast 455 524 31,000  Level New York Center
09:34AM 40.2028 -74.4914 49° Northeast 460 529 31,000  Level New York Center
09:35AM 40.2839 -74.3625 50° Northeast 465 535 31,000 -360 Level New York Center
09:36AM 40.3672 -74.2278 51° Northeast 465 535 30,300 -900 Descending New York Center
09:37AM 40.4503 -74.0983 50° Northeast 465 535 29,300 -840 Descending New York Center
09:39AM 40.6014 -73.8586 50° Northeast 454 522 28,000 -840 Descending Boston Center
09:40AM 40.6819 -73.7319 50° Northeast 448 516 27,000 -1,200 Descending Boston Center
09:41AM 40.7500 -73.6072 54° Northeast 448 516 25,700 -1,380 Descending Boston Center
09:42AM 40.8283 -73.4850 50° Northeast 448 516 24,300 -900 Descending Boston Center
09:43AM 40.9044 -73.3656 50° Northeast 438 504 24,000 -360 Descending Boston Center
09:44AM 40.9950 -73.2431 46° Northeast 424 488 23,600 -540 Descending Boston Center
09:45AM 41.0750 -73.1256 48° Northeast 419 482 23,000 -300 Descending Boston Center
09:46AM 41.1528 -73.0053 49° Northeast 419 482 23,000  Level Boston Center
09:47AM 41.2303 -72.8817 50° Northeast 414 476 23,000  Level Boston Center
09:48AM 41.2872 -72.7356 63° Northeast 429 494 23,000  Level Boston Center
09:49AM 41.3417 -72.5894 64° Northeast 434 499 23,000  Level Boston Center
09:50AM 41.3917 -72.4456 65° Northeast 434 499 23,000 -60 Level Boston Center
09:51AM 41.4458 -72.2989 64° Northeast 434 499 22,900 -1,080 Descending Boston Center
09:52AM 41.4936 -72.1714 63° Northeast 423 487 20,900 -2,280 Descending Boston Center
09:53AM 41.5514 -72.0183 63° Northeast 423 487 18,400 -2,460 Descending Boston Center
09:54AM 41.5925 -71.8767 69° East 413 475 16,000 -2,220 Descending Boston Center
09:55AM 41.6333 -71.7458 67° East 402 463 14,000 -2,160 Descending Boston Center
09:56AM 41.6681 -71.6175 70° East 371 427 11,700 -1,500 Descending Boston Center
09:57AM 41.7006 -71.5086 68° East 355 409 11,000 -360 Descending Boston Center
09:58AM 41.7475 -71.4022 59° Northeast 303 349 11,000  Level Boston Center
09:59AM 41.7967 -71.3233 50° Northeast 298 343 11,000 -120 Level Boston Center
10:00AM 41.8647 -71.2469 40° Northeast 292 336 10,800 -900 Descending Boston Center
10:01AM 41.9331 -71.2122 21° North 284 327 9,200 -1,800 Descending Boston Center
10:02AM 42.0119 -71.1744 20° North 279 321 7,300 -2,040 Descending Boston Center
10:03AM 42.0761 -71.1450 19° North 274 315 5,200 -1,680 Descending Boston Center
10:04AM 42.1467 -71.1100 20° North 259 298 4,000 -1,080 Descending Boston Center
10:05AM 42.2028 -71.0864 17° North 230 265 3,100 -1,020 Descending Boston Center
10:06AM 42.2564 -71.0544 24° Northeast 202 232 2,000 -1,020 Descending Boston Center
10:07AM 42.2958 -71.0367 18° North 172 198 1,100 -780 Descending Boston Center
10:08AM 42.3372 -71.0217 15° North 164 189 500 -300 Descending Boston Center
10:09AM 42.3872 -71.0036 15° North 164 189 600 11,220 Climbing Boston Center
10:10AM 42.4242 -70.9747 30° Northeast 164 189 23,000 22,380 Climbing Boston Center